createdAt,value
2022-12-23T00:01:58.692Z,8.90
2022-12-23T00:04:25.847Z,8.90
2022-12-23T00:06:52.812Z,8.90
2022-12-23T00:09:19.705Z,8.90
2022-12-23T00:12:05.150Z,8.90
2022-12-23T00:14:50.603Z,8.90
2022-12-23T00:17:22.561Z,8.90
2022-12-23T00:19:49.952Z,8.90
2022-12-23T00:22:16.862Z,8.80
2022-12-23T00:24:43.839Z,8.90
2022-12-23T00:27:10.754Z,8.80
2022-12-23T00:29:37.737Z,8.80
2022-12-23T00:32:04.855Z,8.80
2022-12-23T00:34:31.804Z,8.80
2022-12-23T00:36:58.751Z,8.90
2022-12-23T00:39:44.162Z,8.80
2022-12-23T00:42:29.663Z,8.80
2022-12-23T00:45:15.855Z,8.90
2022-12-23T00:48:02.608Z,8.80
2022-12-23T00:50:29.635Z,8.90
2022-12-23T00:52:56.929Z,8.90
2022-12-23T00:55:23.872Z,8.80
2022-12-23T00:57:50.986Z,8.80
2022-12-23T01:00:18.413Z,8.80
2022-12-23T01:03:04.047Z,8.80
2022-12-23T01:05:37.007Z,8.80
2022-12-23T01:08:11.801Z,8.80
2022-12-23T01:10:40.093Z,8.70
2022-12-23T01:13:07.649Z,8.70
2022-12-23T01:15:34.605Z,8.70
2022-12-23T01:18:01.496Z,8.70
2022-12-23T01:20:28.388Z,8.70
2022-12-23T01:22:55.293Z,8.70
2022-12-23T01:25:22.182Z,8.60
2022-12-23T01:27:49.204Z,8.60
2022-12-23T01:30:16.206Z,8.60
2022-12-23T01:32:43.162Z,8.50
2022-12-23T01:35:10.046Z,8.50
2022-12-23T01:37:36.923Z,8.50
2022-12-23T01:40:04.367Z,8.50
2022-12-23T01:42:44.267Z,8.40
2022-12-23T01:45:23.740Z,8.40
2022-12-23T01:47:55.941Z,8.50
2022-12-23T01:50:30.153Z,8.40
2022-12-23T01:53:12.499Z,8.40
2022-12-23T01:55:47.761Z,8.40
2022-12-23T01:58:38.683Z,8.40
2022-12-23T02:03:52.747Z,8.30
2022-12-23T02:06:45.914Z,8.30
2022-12-23T02:09:17.569Z,8.30
2022-12-23T02:12:15.384Z,8.30
2022-12-23T02:15:26.051Z,8.30
2022-12-23T02:18:05.003Z,8.30
2022-12-23T02:20:50.729Z,8.30
2022-12-23T02:23:48.033Z,8.30
2022-12-23T02:26:33.147Z,8.30
2022-12-23T02:29:43.727Z,8.30
2022-12-23T02:32:19.945Z,8.30
2022-12-23T02:35:12.903Z,8.20
2022-12-23T02:38:07.266Z,8.30
2022-12-23T02:41:01.884Z,8.20
2022-12-23T02:44:02.067Z,8.20
2022-12-23T02:46:47.111Z,8.20
2022-12-23T02:49:20.938Z,8.20
2022-12-23T02:51:50.496Z,8.10
2022-12-23T02:54:20.790Z,8.10
2022-12-23T02:56:47.980Z,8.10
2022-12-23T02:59:20.307Z,8.10
2022-12-23T03:01:47.298Z,8.10
2022-12-23T03:04:14.552Z,8.10
2022-12-23T03:06:52.760Z,8.10
2022-12-23T03:10:05.937Z,8.10
2022-12-23T03:12:54.393Z,8.00
2022-12-23T03:15:49.232Z,7.90
2022-12-23T03:18:42.046Z,7.90
2022-12-23T03:21:14.856Z,7.90
2022-12-23T03:23:56.128Z,7.80
2022-12-23T03:26:33.229Z,7.80
2022-12-23T03:29:11.945Z,7.80
2022-12-23T03:31:38.965Z,7.70
2022-12-23T03:34:09.225Z,7.70
2022-12-23T03:36:51.239Z,7.60
2022-12-23T03:39:20.296Z,7.60
2022-12-23T03:41:57.134Z,7.60
2022-12-23T03:44:30.364Z,7.60
2022-12-23T03:47:15.051Z,7.50
2022-12-23T03:49:50.413Z,7.50
2022-12-23T03:52:22.045Z,7.50
2022-12-23T03:54:54.452Z,7.50
2022-12-23T03:57:22.414Z,7.50
2022-12-23T03:59:52.086Z,7.50
2022-12-23T04:02:36.113Z,7.50
2022-12-23T04:05:21.743Z,7.50
2022-12-23T04:08:12.240Z,7.50
2022-12-23T04:10:39.133Z,7.50
2022-12-23T04:13:06.052Z,7.50
2022-12-23T04:15:32.942Z,7.50
2022-12-23T04:17:59.876Z,7.50
2022-12-23T04:20:27.212Z,7.50
2022-12-23T04:22:54.135Z,7.50
2022-12-23T04:25:21.062Z,7.50
2022-12-23T04:27:47.933Z,7.40
2022-12-23T04:30:15.027Z,7.40
2022-12-23T04:32:42.735Z,7.40
2022-12-23T04:35:10.172Z,7.40
2022-12-23T04:37:37.873Z,7.40
2022-12-23T04:40:05.689Z,7.40
2022-12-23T04:42:32.588Z,7.40
2022-12-23T04:44:59.479Z,7.40
2022-12-23T06:04:09.977Z,7.10
2022-12-23T06:06:36.971Z,7.20
2022-12-23T06:09:03.954Z,7.10
2022-12-23T06:11:30.904Z,7.00
2022-12-23T06:13:57.840Z,7.00
2022-12-23T06:16:24.837Z,7.10
2022-12-23T06:18:55.992Z,7.10
2022-12-23T06:21:22.979Z,7.10
2022-12-23T06:23:49.897Z,7.10
2022-12-23T06:26:16.864Z,7.00
2022-12-23T06:28:43.776Z,7.00
2022-12-23T06:31:11.035Z,7.00
2022-12-23T06:33:38.275Z,7.10
2022-12-23T06:36:05.640Z,7.10
2022-12-23T06:38:32.538Z,7.10
2022-12-23T06:40:59.461Z,7.10
2022-12-23T06:43:27.081Z,7.10
2022-12-23T06:45:54.087Z,7.10
2022-12-23T06:48:21.046Z,7.20
2022-12-23T06:50:47.954Z,7.10
2022-12-23T06:53:14.869Z,7.10
2022-12-23T06:55:42.004Z,7.10
2022-12-23T06:58:08.889Z,7.20
2022-12-23T07:00:35.948Z,7.10
2022-12-23T07:03:02.935Z,7.00
2022-12-23T07:05:36.719Z,7.10
2022-12-23T07:08:04.483Z,7.10
2022-12-23T07:10:31.885Z,7.20
2022-12-23T07:12:58.790Z,7.20
2022-12-23T07:15:25.839Z,7.10
2022-12-23T07:17:54.457Z,7.10
2022-12-23T07:20:21.411Z,7.10
2022-12-23T07:22:50.361Z,7.10
2022-12-23T07:25:17.262Z,7.20
2022-12-23T07:27:44.246Z,7.20
2022-12-23T07:30:11.830Z,7.20
2022-12-23T07:32:38.958Z,7.20
2022-12-23T07:35:06.269Z,7.20
2022-12-23T07:37:33.201Z,7.10
2022-12-23T07:40:03.632Z,7.20
2022-12-23T07:42:50.387Z,7.20
2022-12-23T07:45:17.291Z,7.20
2022-12-23T07:47:44.365Z,7.10
2022-12-23T07:50:11.850Z,7.10
2022-12-23T07:52:38.861Z,7.20
2022-12-23T07:55:06.523Z,7.20
2022-12-23T07:57:37.995Z,7.20
2022-12-23T08:00:08.349Z,7.20
2022-12-23T08:02:35.452Z,7.20
2022-12-23T08:05:02.646Z,7.20
2022-12-23T08:07:29.541Z,7.20
2022-12-23T08:09:56.808Z,7.10
2022-12-23T08:12:23.705Z,7.10
2022-12-23T08:14:52.647Z,7.20
2022-12-23T08:17:21.544Z,7.20
2022-12-23T08:19:48.977Z,7.20
2022-12-23T08:22:15.925Z,7.30
2022-12-23T08:24:42.860Z,7.20
2022-12-23T08:27:09.752Z,7.30
2022-12-23T08:29:36.807Z,7.30
2022-12-23T08:32:03.942Z,7.30
2022-12-23T08:34:30.981Z,7.30
2022-12-23T08:36:57.880Z,7.30
2022-12-23T08:39:24.818Z,7.20
2022-12-23T08:41:51.769Z,7.20
2022-12-23T08:44:18.684Z,7.30
2022-12-23T08:46:45.672Z,7.30
2022-12-23T08:49:12.880Z,7.30
2022-12-23T08:51:39.931Z,7.30
2022-12-23T08:54:07.122Z,7.40
2022-12-23T08:56:36.063Z,7.40
2022-12-23T08:59:03.487Z,7.30
2022-12-23T09:01:33.154Z,7.30
2022-12-23T09:04:04.487Z,7.30
2022-12-23T09:06:40.812Z,7.40
2022-12-23T09:09:08.607Z,7.40
2022-12-23T09:11:35.689Z,7.40
2022-12-23T09:14:03.440Z,7.40
2022-12-23T09:16:30.757Z,7.40
2022-12-23T09:18:57.820Z,7.50
2022-12-23T09:21:24.939Z,7.50
2022-12-23T09:23:51.841Z,7.50
2022-12-23T09:26:21.073Z,7.50
2022-12-23T09:28:48.043Z,7.50
2022-12-23T09:31:15.154Z,7.50
2022-12-23T09:33:42.446Z,7.50
2022-12-23T09:36:09.342Z,7.50
2022-12-23T09:38:36.343Z,7.50
2022-12-23T09:41:28.040Z,7.60
2022-12-23T09:44:12.863Z,7.60
2022-12-23T09:46:47.239Z,7.60
2022-12-23T09:49:17.624Z,7.60
2022-12-23T09:51:44.814Z,7.60
2022-12-23T09:54:33.185Z,7.60
2022-12-23T09:57:22.030Z,7.70
2022-12-23T10:00:12.257Z,7.70
2022-12-23T10:03:25.835Z,7.70
2022-12-23T10:06:01.988Z,7.70
2022-12-23T10:08:34.935Z,7.70
2022-12-23T10:11:13.457Z,7.80
2022-12-23T10:13:42.654Z,7.80
2022-12-23T10:16:34.855Z,7.70
2022-12-23T10:19:07.404Z,7.70
2022-12-23T10:22:10.694Z,7.80
2022-12-23T10:24:45.132Z,7.80
2022-12-23T10:27:35.820Z,7.80
2022-12-23T10:30:42.420Z,7.80
2022-12-23T10:33:19.173Z,7.90
2022-12-23T10:36:04.272Z,7.90
2022-12-23T10:38:42.970Z,7.90
2022-12-23T10:41:30.922Z,7.90
2022-12-23T10:44:15.992Z,7.90
2022-12-23T10:47:11.680Z,7.90
2022-12-23T10:49:46.618Z,7.90
2022-12-23T10:52:18.348Z,7.90
2022-12-23T10:54:45.939Z,7.90
2022-12-23T10:57:13.839Z,7.90
2022-12-23T10:59:40.886Z,7.90
2022-12-23T11:02:14.428Z,7.90
2022-12-23T11:04:43.600Z,8.00
2022-12-23T11:10:19.008Z,8.00
2022-12-23T11:12:48.779Z,8.00
2022-12-23T11:15:25.927Z,8.00
2022-12-23T11:18:11.776Z,8.00
2022-12-23T11:20:40.715Z,8.00
2022-12-23T11:23:24.493Z,8.00
2022-12-23T11:25:52.243Z,8.00
2022-12-23T11:28:22.140Z,8.00
2022-12-23T11:30:56.732Z,8.00
2022-12-23T11:33:30.888Z,8.00
2022-12-23T11:36:12.922Z,8.00
2022-12-23T11:38:54.139Z,8.00
2022-12-23T11:41:22.424Z,8.00
2022-12-23T11:44:01.964Z,8.00
2022-12-23T11:46:34.134Z,8.00
2022-12-23T11:49:28.205Z,8.00
2022-12-23T11:52:15.099Z,8.00
2022-12-23T11:54:42.138Z,8.00
2022-12-23T11:57:16.003Z,8.00
2022-12-23T11:59:50.219Z,8.10
2022-12-23T12:02:22.788Z,8.00
2022-12-23T12:04:57.190Z,8.00
2022-12-23T12:07:24.463Z,8.00
2022-12-23T12:09:51.499Z,8.00
2022-12-23T12:12:20.348Z,8.00
2022-12-23T12:14:48.835Z,8.00
2022-12-23T12:17:21.139Z,8.00
2022-12-23T12:20:01.846Z,8.00
2022-12-23T12:22:41.885Z,8.00
2022-12-23T12:25:24.012Z,8.00
2022-12-23T12:28:01.773Z,8.00
2022-12-23T12:30:38.125Z,8.00
2022-12-23T12:33:26.052Z,8.10
2022-12-23T12:36:25.596Z,8.00
2022-12-23T12:38:52.639Z,8.10
2022-12-23T12:41:23.490Z,8.10
2022-12-23T12:44:02.185Z,8.10
2022-12-23T12:46:45.312Z,8.10
2022-12-23T12:49:35.199Z,8.10
2022-12-23T12:52:12.849Z,8.10
2022-12-23T12:55:00.519Z,8.10
2022-12-23T12:57:35.196Z,8.10
2022-12-23T13:00:06.405Z,8.10
2022-12-23T13:02:52.544Z,8.10
2022-12-23T13:05:19.539Z,8.10
2022-12-23T13:08:17.288Z,8.10
2022-12-23T13:10:48.255Z,8.10
2022-12-23T13:13:36.894Z,8.10
2022-12-23T13:16:31.298Z,8.10
2022-12-23T13:19:04.672Z,8.10
2022-12-23T13:21:53.802Z,8.10
2022-12-23T13:24:39.206Z,8.10
2022-12-23T13:27:12.251Z,8.10
2022-12-23T13:30:14.989Z,8.10
2022-12-23T13:33:12.520Z,8.10
2022-12-23T13:36:05.071Z,8.10
2022-12-23T13:39:03.228Z,8.10
2022-12-23T13:42:06.323Z,8.10
2022-12-23T13:44:33.501Z,8.10
2022-12-23T13:47:12.349Z,8.20
2022-12-23T13:50:03.712Z,8.20
2022-12-23T13:53:01.759Z,8.20
2022-12-23T13:55:47.317Z,8.20
2022-12-23T13:58:19.527Z,8.10
2022-12-23T14:00:46.526Z,8.20
2022-12-23T14:03:20.587Z,8.20
2022-12-23T14:05:50.507Z,8.10
2022-12-23T14:08:23.297Z,8.10
2022-12-23T14:11:08.834Z,8.20
2022-12-23T14:13:50.773Z,8.10
2022-12-23T14:16:41.935Z,8.20
2022-12-23T14:19:23.454Z,8.20
2022-12-23T14:22:24.531Z,8.10
2022-12-23T14:25:10.276Z,8.20
2022-12-23T14:27:43.050Z,8.10
2022-12-23T14:30:30.710Z,8.10
2022-12-23T14:32:58.528Z,8.20
2022-12-23T14:35:50.050Z,8.20
2022-12-23T14:38:16.935Z,8.10
2022-12-23T14:40:48.288Z,8.20
2022-12-23T14:43:46.143Z,8.20
2022-12-23T14:46:45.018Z,8.20
2022-12-23T14:49:39.717Z,8.20
2022-12-23T14:52:38.021Z,8.10
2022-12-23T14:55:32.778Z,8.20
2022-12-23T14:58:18.172Z,8.20
2022-12-23T15:00:53.272Z,8.20
2022-12-23T15:03:20.488Z,8.10
2022-12-23T15:05:47.615Z,8.20
2022-12-23T15:08:38.742Z,8.20
2022-12-23T15:11:07.119Z,8.20
2022-12-23T15:13:34.262Z,8.20
2022-12-23T15:16:02.337Z,8.20
2022-12-23T15:18:29.419Z,8.20
2022-12-23T15:21:04.999Z,8.20
2022-12-23T15:23:33.371Z,8.20
2022-12-23T15:26:00.438Z,8.20
2022-12-23T15:28:45.689Z,8.20
2022-12-23T15:31:36.242Z,8.20
2022-12-23T15:34:16.577Z,8.20
2022-12-23T15:36:44.246Z,8.20
2022-12-23T15:39:21.181Z,8.20
2022-12-23T15:41:48.683Z,8.20
2022-12-23T15:44:21.753Z,8.20
2022-12-23T15:46:50.594Z,8.20
2022-12-23T15:49:18.542Z,8.30
2022-12-23T15:52:08.536Z,8.20
2022-12-23T15:54:37.882Z,8.20
2022-12-23T15:57:04.911Z,8.30
2022-12-23T15:59:37.775Z,8.30
2022-12-23T16:05:38.084Z,8.30
2022-12-23T16:08:15.327Z,8.30
2022-12-23T16:10:43.485Z,8.30
2022-12-23T16:13:19.050Z,8.30
2022-12-23T16:15:46.587Z,8.30
2022-12-23T16:18:19.489Z,8.20
2022-12-23T16:20:51.782Z,8.30
2022-12-23T16:23:18.841Z,8.20
2022-12-23T16:25:51.020Z,8.20
2022-12-23T16:28:23.131Z,8.20
2022-12-23T16:30:52.867Z,8.20
2022-12-23T16:33:48.535Z,8.20
2022-12-23T16:36:27.627Z,8.20
2022-12-23T16:39:21.973Z,8.30
2022-12-23T16:41:49.878Z,8.50
2022-12-23T16:44:17.298Z,8.60
2022-12-23T16:46:45.911Z,8.70
2022-12-23T16:49:19.232Z,8.60
2022-12-23T16:51:46.411Z,8.60
2022-12-23T16:54:20.062Z,8.60
2022-12-23T16:56:47.070Z,8.50
2022-12-23T16:59:14.325Z,8.60
2022-12-23T17:01:48.831Z,8.60
2022-12-23T17:04:15.765Z,8.80
2022-12-23T17:06:42.731Z,8.80
2022-12-23T17:09:10.649Z,8.80
2022-12-23T17:11:40.506Z,8.70
2022-12-23T17:14:15.466Z,8.80
2022-12-23T17:16:43.060Z,8.70
2022-12-23T17:19:10.066Z,8.60
2022-12-23T17:21:37.842Z,8.70
2022-12-23T17:24:05.709Z,8.70
2022-12-23T17:26:32.758Z,8.60
2022-12-23T17:28:59.716Z,8.50
2022-12-23T17:31:29.557Z,8.50
2022-12-23T17:33:57.034Z,8.40
2022-12-23T17:36:24.007Z,8.30
2022-12-23T17:38:51.047Z,8.30
2022-12-23T17:41:28.832Z,8.20
2022-12-23T17:43:55.880Z,8.20
2022-12-23T17:46:23.280Z,8.20
2022-12-23T17:48:50.315Z,8.20
2022-12-23T17:51:19.353Z,8.20
2022-12-23T17:53:50.286Z,8.20
2022-12-23T17:56:20.137Z,8.10
2022-12-23T17:58:48.737Z,8.10
2022-12-23T18:01:20.895Z,8.10
2022-12-23T18:03:47.864Z,8.10
2022-12-23T18:06:16.810Z,8.10
2022-12-23T18:08:43.925Z,8.10
2022-12-23T18:11:33.979Z,8.10
2022-12-23T18:14:00.904Z,8.10
2022-12-23T18:16:27.825Z,8.00
2022-12-23T18:18:54.796Z,8.00
2022-12-23T18:21:27.010Z,8.00
2022-12-23T18:23:54.467Z,8.10
2022-12-23T18:26:21.407Z,8.00
2022-12-23T18:28:48.375Z,8.10
2022-12-23T18:31:17.073Z,8.00
2022-12-23T18:33:44.096Z,8.00
2022-12-23T18:36:22.686Z,8.00
2022-12-23T18:38:49.711Z,8.00
2022-12-23T18:41:16.675Z,8.10
2022-12-23T18:43:43.567Z,8.00
2022-12-23T18:46:10.726Z,8.00
2022-12-23T18:48:37.637Z,8.00
2022-12-23T18:51:04.905Z,8.00
2022-12-23T18:53:31.995Z,8.00
2022-12-23T18:55:58.977Z,8.00
2022-12-23T18:58:25.946Z,8.00
2022-12-23T19:00:53.228Z,8.00
2022-12-23T19:03:23.545Z,8.00
2022-12-23T19:05:51.120Z,8.00
2022-12-23T19:08:25.514Z,8.00
2022-12-23T19:10:53.524Z,8.10
2022-12-23T19:13:20.540Z,8.10
2022-12-23T19:15:47.475Z,8.00
2022-12-23T19:18:16.658Z,8.00
2022-12-23T19:20:44.431Z,8.00
2022-12-23T19:23:11.903Z,8.00
2022-12-23T19:25:45.181Z,8.00
2022-12-23T19:28:19.401Z,8.10
2022-12-23T19:30:46.309Z,8.10
2022-12-23T19:33:13.397Z,8.10
2022-12-23T19:35:44.117Z,8.00
2022-12-23T19:38:11.054Z,8.00
2022-12-23T19:40:38.066Z,8.00
2022-12-23T19:43:04.976Z,8.00
2022-12-23T19:45:31.938Z,8.00
2022-12-23T19:47:58.860Z,8.10
2022-12-23T19:50:27.236Z,8.00
2022-12-23T19:52:56.467Z,8.10
2022-12-23T19:55:23.638Z,8.10
2022-12-23T19:57:50.610Z,8.10
2022-12-23T20:00:17.651Z,8.10
2022-12-23T20:02:44.621Z,8.10
2022-12-23T20:05:11.933Z,8.10
2022-12-23T20:07:38.874Z,8.10
2022-12-23T20:10:06.418Z,8.10
2022-12-23T20:12:33.311Z,8.10
2022-12-23T20:15:00.478Z,8.20
2022-12-23T20:17:27.415Z,8.20
2022-12-23T20:19:54.317Z,8.30
2022-12-23T20:22:21.242Z,8.20
2022-12-23T20:24:48.200Z,8.30
2022-12-23T20:27:16.266Z,8.40
2022-12-23T20:29:43.905Z,8.50
2022-12-23T20:32:10.826Z,8.50
2022-12-23T20:34:39.960Z,8.50
2022-12-23T20:37:07.641Z,8.50
2022-12-23T20:39:34.753Z,8.60
2022-12-23T20:42:02.091Z,8.60
2022-12-23T20:44:37.549Z,8.60
2022-12-23T20:47:05.654Z,8.60
2022-12-23T20:49:32.949Z,8.60
2022-12-23T20:51:59.879Z,8.60
2022-12-23T20:54:32.659Z,8.60
2022-12-23T20:57:00.819Z,8.60
2022-12-23T20:59:27.795Z,8.70
2022-12-23T21:01:55.599Z,8.70
2022-12-23T21:04:22.787Z,8.70
2022-12-23T21:06:50.000Z,8.70
2022-12-23T21:09:17.064Z,8.80
2022-12-23T21:11:45.615Z,8.80
2022-12-23T21:14:12.967Z,8.90
2022-12-23T21:16:40.672Z,8.90
2022-12-23T21:19:14.484Z,8.90
2022-12-23T21:21:41.885Z,8.90
2022-12-23T21:24:09.721Z,8.90
2022-12-23T21:26:36.718Z,8.90
2022-12-23T21:29:06.000Z,8.90
2022-12-23T21:31:34.434Z,9.00
2022-12-23T21:34:01.899Z,9.00
2022-12-23T21:36:33.568Z,9.10
2022-12-23T21:39:00.582Z,9.20
2022-12-23T21:41:31.740Z,9.20
2022-12-23T21:44:00.320Z,9.30
2022-12-23T21:46:28.511Z,9.40
2022-12-23T21:48:55.967Z,9.50
2022-12-23T21:51:25.072Z,9.50
2022-12-23T21:53:54.603Z,9.40
2022-12-23T21:56:24.382Z,9.50
2022-12-23T21:58:55.695Z,9.60
2022-12-23T22:01:22.734Z,9.50
2022-12-23T22:03:50.156Z,9.60
2022-12-23T22:06:25.607Z,9.50
2022-12-23T22:08:53.341Z,9.50
2022-12-23T22:11:25.282Z,9.60
2022-12-23T22:13:52.859Z,9.60
2022-12-23T22:16:21.627Z,9.50
2022-12-23T22:18:49.483Z,9.50
2022-12-23T22:21:22.685Z,9.60
2022-12-23T22:23:49.997Z,9.60
2022-12-23T22:26:24.601Z,9.50
2022-12-23T22:28:57.078Z,9.50
2022-12-23T22:31:47.392Z,9.50
2022-12-23T22:34:19.684Z,9.50
2022-12-23T22:36:47.119Z,9.50
2022-12-23T22:39:20.086Z,9.50
2022-12-23T22:41:47.937Z,9.40
2022-12-23T22:44:15.208Z,9.50
2022-12-23T22:46:42.594Z,9.40
2022-12-23T22:49:13.740Z,9.40
2022-12-23T22:51:41.956Z,9.40
2022-12-23T22:54:09.106Z,9.40
2022-12-23T22:56:36.123Z,9.40
2022-12-23T22:59:03.173Z,9.40
2022-12-23T23:01:31.897Z,9.40
2022-12-23T23:04:00.708Z,9.30
2022-12-23T23:06:38.351Z,9.30
2022-12-23T23:09:07.230Z,9.30
2022-12-23T23:11:34.286Z,9.30
2022-12-23T23:14:01.475Z,9.30
2022-12-23T23:16:28.566Z,9.30
2022-12-23T23:18:55.739Z,9.20
2022-12-23T23:21:22.679Z,9.20
2022-12-23T23:23:50.026Z,9.20
2022-12-23T23:26:17.295Z,9.20
2022-12-23T23:28:44.252Z,9.20
2022-12-23T23:33:58.586Z,9.10
2022-12-23T23:36:25.823Z,9.10
2022-12-23T23:38:52.788Z,9.10
2022-12-23T23:41:23.384Z,9.10
2022-12-23T23:43:51.611Z,9.10
2022-12-23T23:46:18.670Z,9.10
2022-12-23T23:48:45.655Z,9.10
2022-12-23T23:51:12.880Z,9.10
2022-12-23T23:53:40.808Z,9.10
2022-12-23T23:56:08.460Z,9.00
2022-12-23T23:58:36.021Z,9.00
